createdAt,value
2016-12-21T00:00:27.330Z,19.21
2016-12-21T00:01:37.598Z,19.31
2016-12-21T00:02:47.237Z,19.31
2016-12-21T00:03:57.191Z,19.12
2016-12-21T00:05:07.458Z,19.21
2016-12-21T00:06:17.421Z,19.12
2016-12-21T00:07:27.701Z,19.12
2016-12-21T00:08:37.960Z,19.12
2016-12-21T00:09:47.936Z,19.12
2016-12-21T00:10:58.213Z,19.4
2016-12-21T00:12:08.485Z,19.4
2016-12-21T00:13:18.753Z,18.93
2016-12-21T00:14:29.016Z,19.02
2016-12-21T00:15:39.273Z,19.12
2016-12-21T00:16:49.548Z,19.4
2016-12-21T00:17:59.810Z,18.93
2016-12-21T00:19:10.070Z,19.21
2016-12-21T00:20:20.024Z,19.12
2016-12-21T00:21:30.274Z,19.6
2016-12-21T00:22:40.549Z,19.12
2016-12-21T00:23:50.517Z,19.21
2016-12-21T00:25:00.483Z,19.21
2016-12-21T00:26:10.133Z,19.12
2016-12-21T00:27:20.087Z,19.21
2016-12-21T00:28:30.352Z,19.21
2016-12-21T00:29:40.611Z,19.5
2016-12-21T00:30:50.261Z,19.12
2016-12-21T00:32:00.534Z,19.5
2016-12-21T00:33:10.512Z,19.4
2016-12-21T00:34:20.771Z,19.31
2016-12-21T00:35:31.053Z,19.4
2016-12-21T00:36:41.315Z,19.21
2016-12-21T00:37:51.584Z,19.21
2016-12-21T00:39:01.539Z,19.6
2016-12-21T00:40:11.824Z,19.21
2016-12-21T00:41:22.138Z,19.6
2016-12-21T00:42:32.109Z,19.21
2016-12-21T00:43:42.368Z,19.6
2016-12-21T00:44:52.634Z,19.4
2016-12-21T00:46:02.295Z,19.31
2016-12-21T00:47:12.573Z,19.21
2016-12-21T00:48:22.843Z,19.21
2016-12-21T00:49:32.497Z,19.6
2016-12-21T00:50:42.442Z,19.21
2016-12-21T00:51:52.394Z,19.21
2016-12-21T00:53:02.344Z,19.6
2016-12-21T00:54:12.609Z,19.21
2016-12-21T00:55:22.871Z,19.5
2016-12-21T00:56:32.548Z,19.5
2016-12-21T00:57:42.500Z,19.21
2016-12-21T00:58:51.844Z,19.12
2016-12-21T01:00:01.188Z,19.21
2016-12-21T01:01:11.172Z,19.12
2016-12-21T01:02:20.832Z,19.21
2016-12-21T01:03:30.784Z,19.21
2016-12-21T01:04:40.730Z,19.12
2016-12-21T01:05:50.692Z,19.21
2016-12-21T01:07:00.338Z,19.21
2016-12-21T01:08:09.981Z,19.21
2016-12-21T01:09:20.262Z,19.21
2016-12-21T01:10:30.528Z,19.21
2016-12-21T01:11:40.179Z,19.21
2016-12-21T01:12:50.447Z,19.21
2016-12-21T01:14:00.080Z,19.12
2016-12-21T01:15:10.348Z,19.21
2016-12-21T01:16:19.993Z,19.21
2016-12-21T01:17:30.261Z,19.21
2016-12-21T01:18:40.623Z,19.6
2016-12-21T01:19:50.574Z,19.21
2016-12-21T01:21:00.529Z,19.4
2016-12-21T01:22:10.789Z,19.12
2016-12-21T01:23:21.051Z,19.12
2016-12-21T01:24:31.317Z,19.12
2016-12-21T01:25:41.579Z,19.5
2016-12-21T01:26:52.430Z,19.6
2016-12-21T01:28:02.706Z,19.12
2016-12-21T01:29:12.648Z,19.12
2016-12-21T01:30:22.904Z,19.02
2016-12-21T01:31:33.176Z,19.12
2016-12-21T01:32:43.137Z,19.02
2016-12-21T01:33:53.439Z,19.4
2016-12-21T01:35:03.383Z,19.31
2016-12-21T01:36:13.650Z,18.93
2016-12-21T01:37:24.014Z,19.21
2016-12-21T01:38:33.694Z,18.93
2016-12-21T01:39:43.339Z,19.4
2016-12-21T01:40:53.287Z,18.93
2016-12-21T01:42:03.540Z,19.02
2016-12-21T01:43:13.790Z,19.5
2016-12-21T01:44:24.058Z,19.12
2016-12-21T01:45:34.317Z,18.93
2016-12-21T01:46:43.649Z,19.21
2016-12-21T01:47:53.607Z,19.4
2016-12-21T01:49:03.565Z,18.93
2016-12-21T01:50:13.837Z,19.21
2016-12-21T01:51:24.094Z,19.31
2016-12-21T01:52:34.352Z,19.12
2016-12-21T01:53:44.621Z,19.21
2016-12-21T01:54:54.608Z,19.21
2016-12-21T01:56:03.946Z,19.21
2016-12-21T01:57:14.236Z,19.21
2016-12-21T01:58:23.565Z,19.31
2016-12-21T01:59:33.841Z,19.21
2016-12-21T02:00:44.092Z,19.31
2016-12-21T02:01:54.051Z,19.21
2016-12-21T02:03:03.701Z,19.31
2016-12-21T02:04:13.648Z,19.31
2016-12-21T02:05:23.289Z,19.21
2016-12-21T02:06:33.545Z,19.21
2016-12-21T02:07:43.536Z,19.21
2016-12-21T02:08:53.798Z,19.31
2016-12-21T02:10:04.061Z,19.31
2016-12-21T02:11:14.319Z,19.31
2016-12-21T02:12:23.647Z,19.21
2016-12-21T02:13:33.900Z,19.31
2016-12-21T02:14:44.156Z,19.31
2016-12-21T02:15:54.435Z,19.31
2016-12-21T02:17:04.695Z,19.31
2016-12-21T02:18:14.955Z,19.12
2016-12-21T02:19:24.914Z,19.21
2016-12-21T02:20:35.176Z,19.12
2016-12-21T02:21:45.442Z,19.12
2016-12-21T02:22:55.861Z,19.12
2016-12-21T02:24:06.117Z,19.31
2016-12-21T02:25:16.388Z,19.12
2016-12-21T02:26:26.651Z,19.21
2016-12-21T02:27:36.922Z,19.12
2016-12-21T02:28:46.864Z,19.12
2016-12-21T02:29:56.849Z,19.21
2016-12-21T02:31:07.115Z,19.21
2016-12-21T02:32:17.774Z,19.12
2016-12-21T02:33:28.036Z,19.12
2016-12-21T02:34:37.991Z,19.12
2016-12-21T02:35:47.937Z,19.12
2016-12-21T02:36:58.193Z,19.12
2016-12-21T02:38:07.869Z,19.21
2016-12-21T02:39:18.126Z,19.21
2016-12-21T02:40:28.078Z,19.12
2016-12-21T02:41:38.039Z,19.12
2016-12-21T02:42:48.298Z,19.12
2016-12-21T02:43:58.564Z,19.12
2016-12-21T02:45:08.519Z,19.21
2016-12-21T02:46:18.791Z,19.02
2016-12-21T02:47:28.749Z,19.12
2016-12-21T02:48:39.008Z,19.12
2016-12-21T02:49:49.263Z,19.12
2016-12-21T02:50:59.513Z,19.02
2016-12-21T02:52:09.779Z,19.02
2016-12-21T02:53:19.737Z,19.21
2016-12-21T02:54:30.019Z,19.12
2016-12-21T02:55:40.288Z,19.31
2016-12-21T02:56:50.550Z,19.12
2016-12-21T02:58:00.188Z,19.12
2016-12-21T02:59:10.146Z,19.02
2016-12-21T03:00:20.412Z,19.02
2016-12-21T03:01:30.047Z,19.12
2016-12-21T03:02:40.315Z,19.2
2016-12-21T03:03:49.956Z,18.93
2016-12-21T03:04:59.921Z,19.21
2016-12-21T03:06:09.886Z,19.12
2016-12-21T03:07:19.835Z,19.11
2016-12-21T03:08:29.790Z,19.02
2016-12-21T03:09:39.793Z,19.21
2016-12-21T03:10:49.755Z,19.11
2016-12-21T03:11:59.712Z,19.11
2016-12-21T03:13:09.360Z,19.11
2016-12-21T03:14:19.303Z,19.21
2016-12-21T03:15:29.559Z,19.12
2016-12-21T03:16:39.504Z,19.31
2016-12-21T03:17:49.453Z,19.02
2016-12-21T03:18:59.703Z,19.31
2016-12-21T03:20:09.961Z,19.02
2016-12-21T03:21:19.913Z,19.2
2016-12-21T03:22:29.877Z,19.01
2016-12-21T03:23:39.849Z,19.02
2016-12-21T03:24:49.797Z,19.11
2016-12-21T03:26:00.057Z,19.11
2016-12-21T03:27:10.313Z,18.73
2016-12-21T03:28:20.591Z,19.12
2016-12-21T03:29:30.853Z,19.11
2016-12-21T03:30:41.119Z,19.02
2016-12-21T03:31:51.070Z,19.11
2016-12-21T03:33:01.336Z,19.12
2016-12-21T03:34:11.592Z,19.2
2016-12-21T03:35:21.861Z,19.02
2016-12-21T03:36:31.816Z,18.63
2016-12-21T03:37:41.456Z,18.93
2016-12-21T03:38:51.092Z,19.12
2016-12-21T03:40:01.348Z,19.11
2016-12-21T03:41:11.299Z,18.91
2016-12-21T03:42:21.560Z,18.91
2016-12-21T03:43:30.895Z,19.2
2016-12-21T03:44:40.575Z,19.11
2016-12-21T03:45:50.211Z,19.02
2016-12-21T03:47:00.503Z,19.12
2016-12-21T03:48:10.147Z,18.83
2016-12-21T03:49:20.412Z,19.12
2016-12-21T03:50:30.396Z,19.02
2016-12-21T03:51:40.664Z,19.02
2016-12-21T03:52:50.629Z,19.12
2016-12-21T03:54:00.891Z,19.11
2016-12-21T03:55:10.849Z,19.01
2016-12-21T03:56:20.488Z,19.01
2016-12-21T03:57:30.437Z,19.02
2016-12-21T03:58:40.390Z,19.02
2016-12-21T03:59:50.354Z,18.83
2016-12-21T04:01:00.303Z,19.11
2016-12-21T04:02:10.556Z,18.93
2016-12-21T04:03:20.824Z,18.82
2016-12-21T04:04:31.090Z,19.02
2016-12-21T04:05:41.358Z,19.12
2016-12-21T04:06:51.628Z,19.01
2016-12-21T04:08:01.565Z,18.91
2016-12-21T04:09:11.830Z,18.83
2016-12-21T04:10:21.477Z,18.83
2016-12-21T04:11:31.432Z,19.01
2016-12-21T04:12:41.375Z,19.11
2016-12-21T04:13:51.036Z,19.21
2016-12-21T04:15:01.282Z,19.11
2016-12-21T04:16:11.542Z,19.01
2016-12-21T04:17:21.497Z,18.82
2016-12-21T04:18:31.753Z,19.11
2016-12-21T04:19:41.737Z,19.2
2016-12-21T04:20:51.990Z,19.11
2016-12-21T04:22:01.965Z,19.12
2016-12-21T04:23:12.222Z,19.02
2016-12-21T04:24:22.470Z,18.91
2016-12-21T04:25:32.710Z,18.83
2016-12-21T04:26:42.652Z,19.11
2016-12-21T04:27:52.916Z,19.2
2016-12-21T04:29:03.188Z,19.02
2016-12-21T04:30:13.446Z,19.02
2016-12-21T04:31:23.404Z,18.82
2016-12-21T04:32:33.075Z,18.82
2016-12-21T04:33:43.341Z,18.73
2016-12-21T04:34:53.283Z,18.73
2016-12-21T04:36:03.548Z,18.73
2016-12-21T04:37:13.497Z,18.63
2016-12-21T04:38:23.753Z,18.63
2016-12-21T04:39:33.705Z,18.82
2016-12-21T04:40:43.961Z,18.82
2016-12-21T04:41:54.227Z,18.73
2016-12-21T04:43:03.567Z,18.82
2016-12-21T04:44:13.830Z,18.82
2016-12-21T04:45:24.099Z,18.82
2016-12-21T04:46:34.080Z,18.73
2016-12-21T04:47:44.176Z,18.91
2016-12-21T04:48:53.824Z,18.82
2016-12-21T04:50:04.086Z,18.91
2016-12-21T04:51:14.346Z,18.91
2016-12-21T04:52:24.608Z,18.91
2016-12-21T04:53:34.870Z,18.91
2016-12-21T04:54:45.133Z,18.91
2016-12-21T04:55:55.398Z,18.91
2016-12-21T04:57:05.647Z,18.91
2016-12-21T04:58:15.593Z,18.82
2016-12-21T04:59:25.853Z,18.91
2016-12-21T05:00:35.836Z,18.82
2016-12-21T05:01:46.092Z,18.91
2016-12-21T05:02:56.038Z,18.82
2016-12-21T05:04:06.000Z,18.91
2016-12-21T05:05:15.941Z,19.01
2016-12-21T05:06:26.205Z,18.82
2016-12-21T05:07:36.153Z,18.82
2016-12-21T05:08:45.486Z,18.82
2016-12-21T05:09:55.455Z,18.73
2016-12-21T05:11:05.414Z,18.73
2016-12-21T05:12:15.420Z,19.01
2016-12-21T05:13:25.366Z,18.53
2016-12-21T05:14:35.646Z,18.63
2016-12-21T05:15:45.921Z,18.44
2016-12-21T05:16:55.870Z,18.53
2016-12-21T05:18:06.181Z,18.63
2016-12-21T05:19:16.124Z,18.53
2016-12-21T05:20:26.371Z,18.44
2016-12-21T05:21:36.431Z,18.44
2016-12-21T05:22:46.720Z,18.44
2016-12-21T05:23:57.001Z,18.53
2016-12-21T05:25:07.270Z,18.53
2016-12-21T05:26:17.570Z,18.53
2016-12-21T05:27:27.545Z,18.53
2016-12-21T05:28:37.209Z,18.53
2016-12-21T05:29:47.468Z,18.63
2016-12-21T05:30:57.113Z,18.44
2016-12-21T05:32:06.767Z,18.44
2016-12-21T05:33:16.424Z,18.53
2016-12-21T05:34:26.684Z,18.63
2016-12-21T05:35:36.646Z,18.44
2016-12-21T05:36:46.292Z,18.34
2016-12-21T05:37:56.272Z,18.53
2016-12-21T05:39:05.907Z,18.53
2016-12-21T05:40:16.182Z,18.53
2016-12-21T05:41:26.447Z,18.53
2016-12-21T05:42:36.699Z,18.44
2016-12-21T05:43:46.345Z,18.44
2016-12-21T05:44:56.285Z,18.44
2016-12-21T05:46:05.949Z,18.44
2016-12-21T05:47:16.221Z,18.44
2016-12-21T05:48:26.387Z,18.44
2016-12-21T05:49:36.365Z,18.53
2016-12-21T05:50:46.675Z,18.53
2016-12-21T05:51:56.646Z,18.44
2016-12-21T05:53:06.614Z,18.53
2016-12-21T05:54:16.974Z,18.53
2016-12-21T05:55:26.928Z,18.24
2016-12-21T05:56:37.193Z,18.34
2016-12-21T05:57:47.496Z,18.34
2016-12-21T05:58:57.766Z,18.34
2016-12-21T06:00:07.725Z,18.34
2016-12-21T06:01:18.035Z,18.24
2016-12-21T06:02:28.009Z,18.15
2016-12-21T06:03:38.297Z,18.44
2016-12-21T06:04:48.563Z,18.34
2016-12-21T06:05:58.243Z,18.15
2016-12-21T06:07:07.888Z,17.96
2016-12-21T06:08:17.537Z,17.86
2016-12-21T06:09:27.491Z,17.96
2016-12-21T06:10:37.757Z,17.86
2016-12-21T06:11:47.703Z,17.86
2016-12-21T06:12:57.968Z,17.86
2016-12-21T06:14:07.910Z,18.15
2016-12-21T06:15:17.548Z,17.96
2016-12-21T06:16:27.810Z,17.96
2016-12-21T06:17:37.776Z,17.86
2016-12-21T06:18:48.047Z,17.96
2016-12-21T06:19:57.746Z,17.67
2016-12-21T06:21:08.004Z,17.76
2016-12-21T06:22:17.963Z,17.96
2016-12-21T06:23:28.240Z,17.96
2016-12-21T06:24:38.516Z,17.96
2016-12-21T06:25:48.167Z,17.57
2016-12-21T06:26:58.439Z,17.47
2016-12-21T06:28:08.071Z,17.57
2016-12-21T06:29:18.023Z,17.57
2016-12-21T06:30:27.674Z,17.86
2016-12-21T06:31:37.616Z,17.67
2016-12-21T06:32:47.895Z,17.67
2016-12-21T06:33:57.847Z,17.67
2016-12-21T06:35:08.102Z,17.67
2016-12-21T06:36:18.383Z,17.67
2016-12-21T06:37:28.025Z,17.76
2016-12-21T06:38:37.673Z,17.76
2016-12-21T06:39:47.623Z,17.76
2016-12-21T06:40:57.577Z,17.86
2016-12-21T06:42:07.536Z,17.76
2016-12-21T06:43:17.802Z,17.57
2016-12-21T06:44:28.128Z,17.57
2016-12-21T06:45:37.974Z,17.57
2016-12-21T06:46:48.227Z,17.67
2016-12-21T06:47:57.878Z,17.67
2016-12-21T06:49:07.859Z,17.57
2016-12-21T06:50:18.131Z,17.57
2016-12-21T06:51:28.207Z,17.57
2016-12-21T06:52:38.197Z,17.57
2016-12-21T06:53:48.457Z,17.57
2016-12-21T06:54:58.111Z,17.47
2016-12-21T06:56:07.763Z,17.38
2016-12-21T06:57:17.708Z,17.38
2016-12-21T06:58:27.980Z,17.57
2016-12-21T06:59:37.930Z,17.47
2016-12-21T07:00:48.288Z,17.57
2016-12-21T07:01:58.259Z,17.47
2016-12-21T07:03:08.527Z,17.38
2016-12-21T07:04:18.483Z,17.38
2016-12-21T07:05:28.742Z,17.19
2016-12-21T07:06:38.076Z,17.09
2016-12-21T07:07:47.717Z,17.19
2016-12-21T07:08:58.016Z,17.38
2016-12-21T07:10:07.660Z,17.29
2016-12-21T07:11:17.660Z,17.29
2016-12-21T07:12:27.968Z,16.9
2016-12-21T07:13:38.232Z,16.99
2016-12-21T07:14:48.217Z,16.99
2016-12-21T07:15:58.172Z,16.71
2016-12-21T07:17:08.140Z,16.71
2016-12-21T07:18:18.098Z,16.99
2016-12-21T07:19:27.756Z,16.99
2016-12-21T07:20:37.717Z,16.9
2016-12-21T07:21:47.679Z,16.9
2016-12-21T07:22:57.935Z,16.9
2016-12-21T07:24:07.887Z,17.09
2016-12-21T07:25:18.165Z,16.99
2016-12-21T07:26:28.430Z,16.8
2016-12-21T07:27:38.379Z,16.71
2016-12-21T07:28:48.671Z,16.9
2016-12-21T07:29:58.664Z,16.61
2016-12-21T07:31:08.942Z,16.8
2016-12-21T07:32:19.323Z,16.8
2016-12-21T07:33:29.298Z,16.9
2016-12-21T07:34:38.948Z,16.8
2016-12-21T07:35:48.311Z,16.61
2016-12-21T07:36:57.976Z,16.61
2016-12-21T07:38:08.228Z,16.52
2016-12-21T07:39:18.497Z,16.42
2016-12-21T07:40:28.771Z,16.61
2016-12-21T07:41:38.737Z,16.52
2016-12-21T07:42:49.054Z,16.52
2016-12-21T07:43:59.005Z,16.9
2016-12-21T07:45:09.278Z,17.19
2016-12-21T07:46:18.943Z,17.47
2016-12-21T07:47:28.921Z,17.77
2016-12-21T07:48:38.622Z,18.16
2016-12-21T07:49:48.597Z,17.68
2016-12-21T07:50:58.606Z,18.35
2016-12-21T07:52:08.910Z,17.77
2016-12-21T07:53:18.878Z,17.87
2016-12-21T07:54:29.324Z,17.49
2016-12-21T07:55:39.318Z,18.35
2016-12-21T07:56:48.977Z,17.96
2016-12-21T07:57:59.332Z,18.44
2016-12-21T07:59:09.266Z,18.55
2016-12-21T08:00:19.265Z,19.13
2016-12-21T08:01:29.233Z,19.32
2016-12-21T08:02:38.927Z,19.03
2016-12-21T08:03:49.238Z,18.93
2016-12-21T08:04:59.228Z,18.93
2016-12-21T08:06:08.912Z,18.74
2016-12-21T08:07:19.204Z,18.44
2016-12-21T08:08:28.946Z,18.44
2016-12-21T08:09:39.038Z,18.44
2016-12-21T08:10:50.006Z,18.26
2016-12-21T08:11:59.986Z,17.96
2016-12-21T08:13:09.643Z,17.96
2016-12-21T08:14:18.998Z,17.68
2016-12-21T08:15:29.302Z,17.68
2016-12-21T08:16:39.580Z,17.68
2016-12-21T08:17:49.919Z,17.68
2016-12-21T08:18:59.882Z,17.77
2016-12-21T08:20:09.254Z,17.77
2016-12-21T08:21:19.554Z,17.39
2016-12-21T08:22:29.833Z,17.58
2016-12-21T08:23:39.803Z,17.58
2016-12-21T08:24:49.785Z,17.58
2016-12-21T08:25:59.462Z,17.19
2016-12-21T08:27:09.746Z,17.29
2016-12-21T08:28:19.756Z,17.29
2016-12-21T08:29:30.060Z,17.1
2016-12-21T08:30:40.025Z,17.19
2016-12-21T08:31:49.372Z,16.91
2016-12-21T08:32:59.342Z,16.91
2016-12-21T08:34:08.715Z,17.19
2016-12-21T08:35:18.683Z,17
2016-12-21T08:36:29.248Z,16.91
2016-12-21T08:37:39.233Z,16.81
2016-12-21T08:38:49.202Z,17
2016-12-21T08:39:59.509Z,17.1
2016-12-21T08:41:09.794Z,16.91
2016-12-21T08:42:19.493Z,16.72
2016-12-21T08:43:29.468Z,16.62
2016-12-21T08:44:39.789Z,16.72
2016-12-21T08:45:49.789Z,16.81
2016-12-21T08:46:59.136Z,16.52
2016-12-21T08:48:09.409Z,16.33
2016-12-21T08:49:19.776Z,16.33
2016-12-21T08:50:30.046Z,16.33
2016-12-21T08:51:40.317Z,16.33
2016-12-21T08:52:50.297Z,16.42
2016-12-21T08:54:00.263Z,16.42
2016-12-21T08:55:10.528Z,16.42
2016-12-21T08:56:20.185Z,16.42
2016-12-21T08:57:30.165Z,16.42
2016-12-21T08:58:40.485Z,16.52
2016-12-21T08:59:50.147Z,16.72
2016-12-21T09:01:00.540Z,16.52
2016-12-21T09:02:10.882Z,16.52
2016-12-21T09:03:21.174Z,16.42
2016-12-21T09:04:31.023Z,16.42
2016-12-21T09:05:40.721Z,16.52
2016-12-21T09:06:50.380Z,16.62
2016-12-21T09:08:00.661Z,16.62
2016-12-21T09:09:10.645Z,16.33
2016-12-21T09:10:20.683Z,16.52
2016-12-21T09:11:30.683Z,16.52
2016-12-21T09:12:40.347Z,16.62
2016-12-21T09:13:50.313Z,16.24
2016-12-21T09:15:00.292Z,16.33
2016-12-21T09:16:10.261Z,16.52
2016-12-21T09:17:20.580Z,16.42
2016-12-21T09:18:29.950Z,16.91
2016-12-21T09:19:40.302Z,16.91
2016-12-21T09:20:50.279Z,16.33
2016-12-21T09:22:00.248Z,17.01
2016-12-21T09:23:10.231Z,17.11
2016-12-21T09:24:20.503Z,17.01
2016-12-21T09:25:30.807Z,17.3
2016-12-21T09:26:40.462Z,17.78
2016-12-21T09:27:50.535Z,17.69
2016-12-21T09:29:00.522Z,17.88
2016-12-21T09:30:10.477Z,17.59
2016-12-21T09:31:20.763Z,18.07
2016-12-21T09:32:31.081Z,17.88
2016-12-21T09:33:41.066Z,18.65
2016-12-21T09:34:51.367Z,18.26
2016-12-21T09:36:01.654Z,18.26
2016-12-21T09:37:11.636Z,18.07
2016-12-21T09:38:21.922Z,17.78
2016-12-21T09:39:31.561Z,17.78
2016-12-21T09:40:41.614Z,17.78
2016-12-21T09:41:51.292Z,17.69
2016-12-21T09:43:01.580Z,17.3
2016-12-21T09:44:11.846Z,17.01
2016-12-21T09:45:21.504Z,17.49
2016-12-21T09:46:31.174Z,17.21
2016-12-21T09:47:41.453Z,16.82
2016-12-21T09:48:51.431Z,16.82
2016-12-21T09:50:01.718Z,16.82
2016-12-21T09:51:11.689Z,17.01
2016-12-21T09:52:21.984Z,17.11
2016-12-21T09:53:31.956Z,16.72
2016-12-21T09:54:41.924Z,16.72
2016-12-21T09:55:52.199Z,16.82
2016-12-21T09:57:02.516Z,16.72
2016-12-21T09:58:12.804Z,16.44
2016-12-21T09:59:22.794Z,16.52
2016-12-21T10:00:32.782Z,16.44
2016-12-21T10:01:43.061Z,16.44
2016-12-21T10:02:53.373Z,16.34
2016-12-21T10:04:03.701Z,16.44
2016-12-21T10:05:13.672Z,16.34
2016-12-21T10:06:23.646Z,16.15
2016-12-21T10:07:33.310Z,16.34
2016-12-21T10:08:43.582Z,15.86
2016-12-21T10:09:53.867Z,16.44
2016-12-21T10:11:03.524Z,16.34
2016-12-21T10:12:13.787Z,16.05
2016-12-21T10:13:23.784Z,16.05
2016-12-21T10:14:34.066Z,16.05
2016-12-21T10:15:44.335Z,15.95
2016-12-21T10:16:54.293Z,15.86
2016-12-21T10:18:04.555Z,15.77
2016-12-21T10:19:14.510Z,15.95
2016-12-21T10:20:24.478Z,16.05
2016-12-21T10:21:34.757Z,15.57
2016-12-21T10:22:43.807Z,15.95
2016-12-21T10:23:54.123Z,15.86
2016-12-21T10:25:04.403Z,16.15
2016-12-21T10:26:14.681Z,15.86
2016-12-21T10:27:24.957Z,16.05
2016-12-21T10:28:35.229Z,15.95
2016-12-21T10:29:45.194Z,16.05
2016-12-21T10:30:55.482Z,15.95
2016-12-21T10:32:05.786Z,15.95
2016-12-21T10:33:16.058Z,16.05
2016-12-21T10:34:26.080Z,16.05
2016-12-21T10:35:36.142Z,15.95
2016-12-21T10:36:46.116Z,16.34
2016-12-21T10:37:55.761Z,16.24
2016-12-21T10:39:05.722Z,16.34
2016-12-21T10:40:15.701Z,16.34
2016-12-21T10:41:25.376Z,16.44
2016-12-21T10:42:35.649Z,16.24
2016-12-21T10:43:45.915Z,16.53
2016-12-21T10:44:56.203Z,16.53
2016-12-21T10:46:06.481Z,16.34
2016-12-21T10:47:16.488Z,16.63
2016-12-21T10:48:26.610Z,16.72
2016-12-21T10:49:36.866Z,16.44
2016-12-21T10:50:47.149Z,16.34
2016-12-21T10:51:57.119Z,16.53
2016-12-21T10:53:07.073Z,16.24
2016-12-21T10:54:17.354Z,16.63
2016-12-21T10:55:27.333Z,16.24
2016-12-21T10:56:37.295Z,16.53
2016-12-21T10:57:47.576Z,16.53
2016-12-21T10:58:57.855Z,16.53
2016-12-21T11:00:08.124Z,16.44
2016-12-21T11:01:18.082Z,16.53
2016-12-21T11:02:28.351Z,16.44
2016-12-21T11:03:38.337Z,16.72
2016-12-21T11:04:48.649Z,16.63
2016-12-21T11:05:58.020Z,16.82
2016-12-21T11:07:08.001Z,16.92
2016-12-21T11:08:18.316Z,16.63
2016-12-21T11:09:27.989Z,16.72
2016-12-21T11:10:37.657Z,16.82
2016-12-21T11:11:47.622Z,16.72
2016-12-21T11:12:57.884Z,16.82
2016-12-21T11:14:07.846Z,16.63
2016-12-21T11:15:17.487Z,16.63
2016-12-21T11:16:27.765Z,16.82
2016-12-21T11:17:38.043Z,17.01
2016-12-21T11:18:48.338Z,16.92
2016-12-21T11:19:58.604Z,16.92
2016-12-21T11:21:08.874Z,16.92
2016-12-21T11:22:19.149Z,17.11
2016-12-21T11:23:28.802Z,16.63
2016-12-21T11:24:38.760Z,16.82
2016-12-21T11:25:48.725Z,16.72
2016-12-21T11:26:58.674Z,16.82
2016-12-21T11:28:08.620Z,16.82
2016-12-21T11:29:18.626Z,17.11
2016-12-21T11:30:28.939Z,17.01
2016-12-21T11:31:39.272Z,16.92
2016-12-21T11:32:48.623Z,16.82
2016-12-21T11:33:58.283Z,16.82
2016-12-21T11:35:08.543Z,16.92
2016-12-21T11:36:18.851Z,16.82
2016-12-21T11:37:27.887Z,16.92
2016-12-21T11:38:37.853Z,16.82
2016-12-21T11:39:47.833Z,17.11
2016-12-21T11:40:57.997Z,16.92
2016-12-21T11:42:08.308Z,16.92
2016-12-21T11:43:18.597Z,17.01
2016-12-21T11:44:28.259Z,16.92
2016-12-21T11:45:38.227Z,16.63
2016-12-21T11:46:48.208Z,16.92
2016-12-21T11:47:58.493Z,16.82
2016-12-21T11:49:08.788Z,17.01
2016-12-21T11:50:18.756Z,16.92
2016-12-21T11:51:29.025Z,16.92
2016-12-21T11:52:39.004Z,16.82
2016-12-21T11:53:49.313Z,17.01
2016-12-21T11:54:59.327Z,16.82
2016-12-21T11:56:09.031Z,17.01
2016-12-21T11:57:19.004Z,16.92
2016-12-21T11:58:28.981Z,16.82
2016-12-21T11:59:39.279Z,17.11
2016-12-21T12:00:49.564Z,16.92
2016-12-21T12:01:59.839Z,16.92
2016-12-21T12:03:09.823Z,16.72
2016-12-21T12:04:20.096Z,17.01
2016-12-21T12:05:30.582Z,16.92
2016-12-21T12:06:40.856Z,16.72
2016-12-21T12:07:50.850Z,17.11
2016-12-21T12:09:00.496Z,16.92
2016-12-21T12:10:10.152Z,17.01
2016-12-21T12:11:20.423Z,17.11
2016-12-21T12:12:30.382Z,17.01
2016-12-21T12:13:40.355Z,16.82
2016-12-21T12:14:50.019Z,16.82
2016-12-21T12:16:00.294Z,17.21
2016-12-21T12:17:10.551Z,18.26
2016-12-21T12:18:20.523Z,17.69
2016-12-21T12:19:30.494Z,17.3
2016-12-21T12:20:40.493Z,16.92
2016-12-21T12:21:50.458Z,16.92
2016-12-21T12:23:00.456Z,16.72
2016-12-21T12:24:10.459Z,17.3
2016-12-21T12:25:20.427Z,17.3
2016-12-21T12:26:30.695Z,17.49
2016-12-21T12:27:41.006Z,17.4
2016-12-21T12:28:51.281Z,16.92
2016-12-21T12:30:00.932Z,16.72
2016-12-21T12:31:10.926Z,17.01
2016-12-21T12:32:20.943Z,17.21
2016-12-21T12:33:31.214Z,17.59
2016-12-21T12:34:41.221Z,16.92
2016-12-21T12:35:50.879Z,17.01
2016-12-21T12:37:01.151Z,17.11
2016-12-21T12:38:11.115Z,16.72
2016-12-21T12:39:20.773Z,16.82
2016-12-21T12:40:31.055Z,16.72
2016-12-21T12:41:41.333Z,16.92
2016-12-21T12:42:51.017Z,17.21
2016-12-21T12:44:01.310Z,16.72
2016-12-21T12:45:11.318Z,17.11
2016-12-21T12:46:21.626Z,16.72
2016-12-21T12:47:31.302Z,17.01
2016-12-21T12:48:40.982Z,17.21
2016-12-21T12:49:51.269Z,16.82
2016-12-21T12:51:00.944Z,16.92
2016-12-21T12:52:11.222Z,16.82
2016-12-21T12:53:21.219Z,16.92
2016-12-21T12:54:31.510Z,16.92
2016-12-21T12:55:41.801Z,16.92
2016-12-21T12:56:51.769Z,17.11
2016-12-21T12:58:01.811Z,17.21
2016-12-21T12:59:11.152Z,16.72
2016-12-21T13:00:21.135Z,16.72
2016-12-21T13:01:31.427Z,17.11
2016-12-21T13:02:41.399Z,16.72
2016-12-21T13:03:51.726Z,16.63
2016-12-21T13:05:01.716Z,17.01
2016-12-21T13:06:11.686Z,16.82
2016-12-21T13:07:21.970Z,16.92
2016-12-21T13:08:31.949Z,17.01
2016-12-21T13:09:41.928Z,16.82
2016-12-21T13:10:52.199Z,16.72
2016-12-21T13:12:02.190Z,16.82
2016-12-21T13:13:12.152Z,17.21
2016-12-21T13:14:21.837Z,16.82
2016-12-21T13:15:31.806Z,16.63
2016-12-21T13:16:41.767Z,16.92
2016-12-21T13:17:51.729Z,17.02
2016-12-21T13:19:01.688Z,16.92
2016-12-21T13:20:11.991Z,16.63
2016-12-21T13:21:21.950Z,16.92
2016-12-21T13:22:32.268Z,16.82
2016-12-21T13:23:42.568Z,16.53
2016-12-21T13:24:52.555Z,17.02
2016-12-21T13:26:02.859Z,16.73
2016-12-21T13:27:12.254Z,16.82
2016-12-21T13:28:22.225Z,16.44
2016-12-21T13:29:32.193Z,16.82
2016-12-21T13:30:42.488Z,16.92
2016-12-21T13:31:52.470Z,17.01
2016-12-21T13:33:02.436Z,16.92
2016-12-21T13:34:12.100Z,16.82
2016-12-21T13:35:22.377Z,16.82
2016-12-21T13:36:32.030Z,16.92
2016-12-21T13:37:42.001Z,17.11
2016-12-21T13:38:52.294Z,16.92
2016-12-21T13:40:02.225Z,16.44
2016-12-21T13:41:12.213Z,16.92
2016-12-21T13:42:21.886Z,16.92
2016-12-21T13:43:31.585Z,17.11
2016-12-21T13:44:41.859Z,16.63
2016-12-21T13:45:52.145Z,16.63
2016-12-21T13:47:02.482Z,16.82
2016-12-21T13:48:12.475Z,16.44
2016-12-21T13:49:22.450Z,16.82
2016-12-21T13:50:31.812Z,16.44
2016-12-21T13:51:42.110Z,16.34
2016-12-21T13:52:52.426Z,16.82
2016-12-21T13:54:02.951Z,16.82
2016-12-21T13:55:12.001Z,16.34
2016-12-21T13:56:22.283Z,16.35
2016-12-21T13:57:31.965Z,16.72
2016-12-21T13:58:41.943Z,16.53
2016-12-21T13:59:52.224Z,16.54
2016-12-21T14:01:02.268Z,16.64
2016-12-21T14:02:12.588Z,16.44
2016-12-21T14:03:22.572Z,16.24
2016-12-21T14:04:32.242Z,16.44
2016-12-21T14:05:42.223Z,15.86
2016-12-21T14:06:52.561Z,15.77
2016-12-21T14:08:02.846Z,16.15
2016-12-21T14:09:12.798Z,15.77
2016-12-21T14:10:22.766Z,16.53
2016-12-21T14:11:33.074Z,16.53
2016-12-21T14:12:43.060Z,16.53
2016-12-21T14:13:53.051Z,16.53
2016-12-21T14:15:03.342Z,16.44
2016-12-21T14:16:13.313Z,16.53
2016-12-21T14:17:23.613Z,16.44
2016-12-21T14:18:33.931Z,16.15
2016-12-21T14:21:43.409Z,17.69
2016-12-21T14:22:53.422Z,17.21
2016-12-21T14:24:03.699Z,17.02
2016-12-21T14:25:13.985Z,16.72
2016-12-21T14:26:24.272Z,17.11
2016-12-21T14:27:34.579Z,17.01
2016-12-21T14:28:44.864Z,16.92
2016-12-21T14:29:54.525Z,16.72
2016-12-21T14:31:04.810Z,16.72
2016-12-21T14:32:15.097Z,16.53
2016-12-21T14:33:24.497Z,16.34
2016-12-21T14:34:34.467Z,16.34
2016-12-21T14:35:44.445Z,16.53
2016-12-21T14:36:54.432Z,16.92
2016-12-21T14:38:04.720Z,16.44
2016-12-21T14:39:14.691Z,16.63
2016-12-21T14:40:24.667Z,16.44
2016-12-21T14:41:34.644Z,16.72
2016-12-21T14:42:44.640Z,16.53
2016-12-21T14:43:54.617Z,16.53
2016-12-21T14:45:04.905Z,16.34
2016-12-21T14:46:15.207Z,16.34
2016-12-21T14:47:25.212Z,16.92
2016-12-21T14:48:35.507Z,16.72
2016-12-21T14:49:45.820Z,16.24
2016-12-21T14:50:55.814Z,16.44
2016-12-21T14:52:06.338Z,16.44
2016-12-21T14:53:16.620Z,16.34
2016-12-21T14:54:26.623Z,16.44
2016-12-21T14:55:36.616Z,16.44
2016-12-21T14:56:46.597Z,16.63
2016-12-21T14:57:56.560Z,16.53
2016-12-21T14:59:06.839Z,16.14
2016-12-21T15:00:17.118Z,16.24
2016-12-21T15:01:27.388Z,16.42
2016-12-21T15:02:37.391Z,15.95
2016-12-21T15:03:47.668Z,16.33
2016-12-21T15:04:57.946Z,16.24
2016-12-21T15:06:07.928Z,16.14